createdAt,value
2018-09-26T00:01:11.044Z,78.90
2018-09-26T00:03:42.536Z,79.50
2018-09-26T13:36:27.043Z,38.50
2018-09-26T13:38:54.485Z,38.20
2018-09-26T13:41:21.948Z,37.80
2018-09-26T13:43:49.440Z,38.10
2018-09-26T13:46:17.137Z,37.20
2018-09-26T13:48:44.704Z,37.00
2018-09-26T13:51:12.158Z,36.30
2018-09-26T13:53:41.935Z,36.30
2018-09-26T13:56:09.439Z,36.80
2018-09-26T13:58:38.161Z,35.90
2018-09-26T14:01:08.135Z,36.80
2018-09-26T14:03:37.580Z,37.00
2018-09-26T14:06:12.042Z,36.90
2018-09-26T14:08:46.906Z,37.00
2018-09-26T14:11:15.317Z,39.00
2018-09-26T14:13:43.356Z,38.60
2018-09-26T14:16:15.363Z,37.70
2018-09-26T15:05:13.846Z,36.80
2018-09-26T15:07:41.413Z,40.30
2018-09-26T15:10:09.197Z,40.60
2018-09-26T15:12:36.778Z,40.10
2018-09-26T15:15:04.460Z,41.10
2018-09-26T15:17:31.971Z,41.30
2018-09-26T15:19:59.596Z,41.50
2018-09-26T15:22:27.133Z,43.20
2018-09-26T15:24:54.617Z,41.40
2018-09-26T15:27:22.138Z,42.20
2018-09-26T15:29:49.705Z,41.80
2018-09-26T15:32:17.366Z,42.40
2018-09-26T15:34:44.887Z,42.40
2018-09-26T15:37:12.855Z,41.50
2018-09-26T15:39:40.671Z,41.30
2018-09-26T15:42:12.045Z,43.10
2018-09-26T15:44:42.942Z,41.40
2018-09-26T15:47:10.652Z,41.80
2018-09-26T15:49:38.046Z,44.00
2018-09-26T15:52:05.633Z,42.30
2018-09-26T15:54:33.088Z,43.60
2018-09-26T15:57:00.634Z,43.50
2018-09-26T15:59:28.166Z,43.20
2018-09-26T16:01:55.686Z,44.20
2018-09-26T16:04:25.592Z,45.40
2018-09-26T16:06:53.238Z,44.10
2018-09-26T16:09:20.693Z,45.10
2018-09-26T16:11:48.272Z,45.70
2018-09-26T16:14:15.915Z,46.20
2018-09-26T16:16:43.479Z,45.00
2018-09-26T16:19:11.074Z,44.70
2018-09-26T16:21:38.556Z,45.50
2018-09-26T16:24:05.999Z,45.30
2018-09-26T16:26:33.392Z,46.60
2018-09-26T16:29:00.901Z,47.30
2018-09-26T16:31:28.452Z,47.10
2018-09-26T16:33:55.930Z,47.70
2018-09-26T16:36:23.447Z,48.60
2018-09-26T16:38:51.164Z,48.90
2018-09-26T16:41:22.851Z,49.30
2018-09-26T16:43:54.571Z,50.30
2018-09-26T16:46:22.048Z,50.10
2018-09-26T16:48:49.566Z,50.60
2018-09-26T16:51:17.196Z,50.60
2018-09-26T16:53:44.795Z,50.70
2018-09-26T16:56:12.238Z,50.80
2018-09-26T16:58:40.776Z,50.90
2018-09-26T17:01:08.244Z,51.60
2018-09-26T17:03:35.981Z,51.70
2018-09-26T17:06:03.638Z,52.40
2018-09-26T17:08:31.059Z,52.70
2018-09-26T17:10:58.762Z,52.80
2018-09-26T17:13:26.482Z,52.80
2018-09-26T17:15:53.995Z,52.40
2018-09-26T17:18:21.468Z,52.90
2018-09-26T17:20:53.155Z,53.20
2018-09-26T17:23:20.625Z,54.20
2018-09-26T17:25:48.087Z,55.70
2018-09-26T17:28:16.692Z,56.60
2018-09-26T17:30:44.394Z,57.20
2018-09-26T17:33:19.981Z,57.70
2018-09-26T17:35:47.321Z,58.20
2018-09-26T17:38:14.968Z,60.00
2018-09-26T17:40:42.476Z,60.80
2018-09-26T17:43:10.469Z,62.10
2018-09-26T17:45:38.042Z,62.60
2018-09-26T17:50:40.377Z,65.10
2018-09-26T17:53:07.984Z,66.00
2018-09-26T17:55:35.477Z,66.50
2018-09-26T17:58:06.653Z,66.80
2018-09-26T18:00:34.204Z,67.20
2018-09-26T18:03:01.692Z,68.40
2018-09-26T18:05:29.210Z,69.40
2018-09-26T18:07:56.751Z,69.20
2018-09-26T18:10:27.488Z,69.10
2018-09-26T18:12:55.070Z,69.70
2018-09-26T18:15:22.702Z,70.50
2018-09-26T18:17:50.248Z,70.80
2018-09-26T18:20:17.819Z,70.50
2018-09-26T18:22:45.337Z,70.00
2018-09-26T18:25:12.975Z,69.70
2018-09-26T18:27:40.563Z,69.80
2018-09-26T18:30:08.202Z,70.10
2018-09-26T18:32:44.000Z,67.90
2018-09-26T18:35:13.389Z,67.20
2018-09-26T18:37:43.342Z,68.60
2018-09-26T18:40:11.697Z,69.20
2018-09-26T18:42:39.727Z,69.00
2018-09-26T18:45:07.402Z,70.00
2018-09-26T18:47:34.995Z,71.20
2018-09-26T18:50:02.566Z,72.00
2018-09-26T18:52:30.125Z,73.40
2018-09-26T18:54:57.696Z,75.00
2018-09-26T18:57:25.183Z,75.80
2018-09-26T18:59:53.216Z,75.80
2018-09-26T19:02:20.873Z,75.80
2018-09-26T19:04:48.295Z,76.70
2018-09-26T19:07:15.686Z,77.90
2018-09-26T19:09:43.279Z,78.90
2018-09-26T19:12:10.865Z,79.70
2018-09-26T19:14:38.510Z,80.80
2018-09-26T19:17:06.047Z,80.10
2018-09-26T19:19:33.461Z,79.90
2018-09-26T19:22:00.895Z,80.30
2018-09-26T19:24:28.531Z,80.20
2018-09-26T19:26:56.042Z,81.80
2018-09-26T19:29:23.627Z,82.60
2018-09-26T19:31:51.089Z,83.80
2018-09-26T19:34:18.644Z,85.50
2018-09-26T19:36:46.361Z,85.80
2018-09-26T19:39:14.617Z,86.20
2018-09-26T19:41:42.189Z,86.20
2018-09-26T19:44:09.879Z,86.00
2018-09-26T19:46:37.416Z,87.10
2018-09-26T19:49:05.683Z,87.20
2018-09-26T19:51:33.156Z,87.50
2018-09-26T19:54:00.722Z,88.80
2018-09-26T19:56:28.847Z,90.80
2018-09-26T19:58:56.775Z,90.80
2018-09-26T20:01:25.817Z,90.50
2018-09-26T20:03:53.324Z,90.60
2018-09-26T20:06:20.829Z,90.50
2018-09-26T20:08:48.514Z,90.20
2018-09-26T20:11:28.224Z,90.50
2018-09-26T20:17:31.718Z,90.30
2018-09-26T22:06:31.193Z,98.60
2018-09-26T22:08:58.720Z,98.70
2018-09-26T22:11:26.258Z,99.00
2018-09-26T22:13:53.809Z,99.10
2018-09-26T22:16:21.291Z,99.00
2018-09-26T22:18:48.725Z,99.20
2018-09-26T22:21:16.145Z,99.60
2018-09-26T22:23:43.563Z,99.30
2018-09-26T22:26:11.020Z,99.90
2018-09-26T22:28:38.396Z,99.90
2018-09-26T22:31:06.258Z,99.60
2018-09-26T22:33:33.680Z,99.50
2018-09-26T22:36:01.130Z,99.30
2018-09-26T22:38:28.645Z,99.60
2018-09-26T22:40:56.024Z,99.50
2018-09-26T22:43:23.470Z,99.60
2018-09-26T22:45:50.952Z,99.40
2018-09-26T22:48:18.521Z,99.40
2018-09-26T22:50:45.935Z,99.00
2018-09-26T22:53:13.409Z,98.90
2018-09-26T22:55:40.911Z,99.20
2018-09-26T22:58:08.398Z,99.50
2018-09-26T23:00:35.820Z,99.80
2018-09-26T23:03:03.339Z,99.90
2018-09-26T23:05:31.010Z,99.90
2018-09-26T23:07:58.525Z,99.90
2018-09-26T23:10:26.011Z,99.90
2018-09-26T23:12:53.487Z,99.90
2018-09-26T23:15:20.902Z,99.90
2018-09-26T23:17:48.387Z,99.90
2018-09-26T23:20:15.940Z,99.90
2018-09-26T23:22:43.359Z,99.90
2018-09-26T23:25:10.865Z,99.90
2018-09-26T23:27:38.363Z,99.90
2018-09-26T23:30:05.835Z,99.90
2018-09-26T23:32:33.232Z,99.90
2018-09-26T23:35:00.660Z,99.90
2018-09-26T23:37:28.138Z,99.90
2018-09-26T23:39:55.599Z,99.90
2018-09-26T23:42:23.120Z,99.90
2018-09-26T23:44:50.586Z,99.90
2018-09-26T23:47:18.105Z,99.90
2018-09-26T23:49:45.665Z,99.90
2018-09-26T23:52:13.117Z,99.90
2018-09-26T23:54:40.673Z,99.90
2018-09-26T23:57:08.081Z,99.90
2018-09-26T23:59:35.581Z,99.90
